createdAt,value
2019-02-11T00:00:10.876Z,4.10
2019-02-11T00:02:40.127Z,4.10
2019-02-11T00:05:09.316Z,4.10
2019-02-11T00:07:38.548Z,4.00
2019-02-11T00:10:07.777Z,4.00
2019-02-11T00:12:38.374Z,4.00
2019-02-11T00:15:07.151Z,3.90
2019-02-11T00:17:36.337Z,3.90
2019-02-11T00:20:06.044Z,3.90
2019-02-11T00:22:35.266Z,3.90
2019-02-11T00:25:04.352Z,3.90
2019-02-11T00:27:33.166Z,3.80
2019-02-11T00:30:02.014Z,3.80
2019-02-11T00:32:31.391Z,3.80
2019-02-11T00:35:00.675Z,3.80
2019-02-11T00:37:29.823Z,3.70
2019-02-11T00:39:59.156Z,3.70
2019-02-11T00:42:27.925Z,3.70
2019-02-11T00:44:57.089Z,3.70
2019-02-11T00:47:25.881Z,3.60
2019-02-11T00:49:55.286Z,3.60
2019-02-11T00:52:24.159Z,3.60
2019-02-11T00:54:53.327Z,3.50
2019-02-11T00:57:22.537Z,3.50
2019-02-11T00:59:51.778Z,3.50
2019-02-11T01:02:21.045Z,3.40
2019-02-11T01:04:50.340Z,3.40
2019-02-11T01:07:19.250Z,3.40
2019-02-11T01:09:48.488Z,3.40
2019-02-11T01:12:17.237Z,3.30
2019-02-11T01:14:46.477Z,3.30
2019-02-11T01:17:15.218Z,3.30
2019-02-11T01:19:44.418Z,3.30
2019-02-11T01:22:13.887Z,3.20
2019-02-11T01:24:43.100Z,3.20
2019-02-11T01:27:11.898Z,3.20
2019-02-11T01:29:41.247Z,3.10
2019-02-11T01:32:10.204Z,3.10
2019-02-11T01:34:39.391Z,3.10
2019-02-11T01:37:08.622Z,3.10
2019-02-11T01:39:37.394Z,3.00
2019-02-11T01:42:06.903Z,3.00
2019-02-11T01:44:36.161Z,3.00
2019-02-11T01:47:04.961Z,3.00
2019-02-11T01:49:33.684Z,2.90
2019-02-11T01:52:03.021Z,2.90
2019-02-11T01:54:32.225Z,2.90
2019-02-11T01:57:00.924Z,2.80
2019-02-11T01:59:29.671Z,2.80
2019-02-11T02:01:58.931Z,2.70
2019-02-11T02:04:28.221Z,2.70
2019-02-11T02:06:57.557Z,2.70
2019-02-11T02:09:26.409Z,2.70
2019-02-11T02:11:55.138Z,2.70
2019-02-11T02:14:24.432Z,2.70
2019-02-11T02:16:53.663Z,2.70
2019-02-11T02:19:22.920Z,2.60
2019-02-11T02:21:52.144Z,2.60
2019-02-11T02:24:20.959Z,2.60
2019-02-11T02:26:49.732Z,2.60
2019-02-11T02:29:18.545Z,2.70
2019-02-11T02:31:47.325Z,2.70
2019-02-11T02:34:16.535Z,2.70
2019-02-11T02:36:46.016Z,2.70
2019-02-11T02:39:15.479Z,2.70
2019-02-11T02:41:44.653Z,2.70
2019-02-11T02:44:13.537Z,2.70
2019-02-11T02:46:42.872Z,2.80
2019-02-11T02:49:11.984Z,2.80
2019-02-11T02:51:41.201Z,2.80
2019-02-11T02:54:10.104Z,2.80
2019-02-11T02:56:38.911Z,2.80
2019-02-11T02:59:08.267Z,2.90
2019-02-11T03:01:37.403Z,2.90
2019-02-11T03:04:06.599Z,2.90
2019-02-11T03:06:35.397Z,2.90
2019-02-11T03:09:05.128Z,2.90
2019-02-11T03:11:34.236Z,3.00
2019-02-11T03:14:05.950Z,3.00
2019-02-11T03:16:33.537Z,3.00
2019-02-11T03:19:02.796Z,3.00
2019-02-11T03:21:32.170Z,3.10
2019-02-11T03:24:01.305Z,3.10
2019-02-11T03:26:30.075Z,3.10
2019-02-11T03:28:59.304Z,3.10
2019-02-11T03:31:28.641Z,3.20
2019-02-11T03:33:57.438Z,3.20
2019-02-11T03:36:26.216Z,3.20
2019-02-11T03:38:55.007Z,3.20
2019-02-11T03:41:24.524Z,3.20
2019-02-11T03:43:53.931Z,3.20
2019-02-11T03:46:23.114Z,3.30
2019-02-11T03:48:51.816Z,3.30
2019-02-11T03:51:21.115Z,3.30
2019-02-11T03:53:50.246Z,3.30
2019-02-11T03:56:19.033Z,3.30
2019-02-11T03:58:48.295Z,3.30
2019-02-11T04:01:23.708Z,3.30
2019-02-11T04:03:56.221Z,3.40
2019-02-11T04:06:25.509Z,3.40
2019-02-11T04:08:54.314Z,3.40
2019-02-11T04:11:23.248Z,3.40
2019-02-11T04:13:52.442Z,3.40
2019-02-11T04:16:21.755Z,3.40
2019-02-11T04:18:50.561Z,3.40
2019-02-11T04:21:19.820Z,3.40
2019-02-11T04:23:49.027Z,3.40
2019-02-11T04:26:18.230Z,3.40
2019-02-11T04:28:47.591Z,3.40
2019-02-11T04:31:16.771Z,3.40
2019-02-11T04:33:45.958Z,3.40
2019-02-11T05:31:45.903Z,3.20
2019-02-11T05:34:17.181Z,3.20
2019-02-11T05:36:46.540Z,3.20
2019-02-11T05:39:15.552Z,3.20
2019-02-11T05:41:44.418Z,3.30
2019-02-11T05:44:14.165Z,3.20
2019-02-11T05:46:43.632Z,3.20
2019-02-11T05:49:12.529Z,3.20
2019-02-11T05:51:41.482Z,3.20
2019-02-11T05:54:11.252Z,3.20
2019-02-11T05:56:40.610Z,3.20
2019-02-11T05:59:09.914Z,3.20
2019-02-11T06:01:39.589Z,3.20
2019-02-11T06:04:08.865Z,3.20
2019-02-11T06:06:38.253Z,3.20
2019-02-11T06:09:08.113Z,3.20
2019-02-11T06:11:37.592Z,3.20
2019-02-11T06:14:07.116Z,3.20
2019-02-11T06:16:36.531Z,3.10
2019-02-11T06:19:06.087Z,3.10
2019-02-11T06:21:36.029Z,3.00
2019-02-11T06:24:05.325Z,3.00
2019-02-11T06:26:35.053Z,3.00
2019-02-11T06:29:03.818Z,2.90
2019-02-11T06:31:32.667Z,2.90
2019-02-11T06:34:01.434Z,2.90
2019-02-11T06:36:31.335Z,2.80
2019-02-11T06:38:59.995Z,2.80
2019-02-11T06:41:28.711Z,2.70
2019-02-11T06:43:57.564Z,2.70
2019-02-11T06:46:26.351Z,2.70
2019-02-11T06:48:55.144Z,2.70
2019-02-11T06:51:23.922Z,2.70
2019-02-11T06:53:52.644Z,2.60
2019-02-11T06:56:21.375Z,2.60
2019-02-11T06:58:50.069Z,2.60
2019-02-11T07:01:18.948Z,2.50
2019-02-11T07:03:47.821Z,2.50
2019-02-11T07:06:16.697Z,2.50
2019-02-11T07:08:45.480Z,2.50
2019-02-11T07:11:15.115Z,2.50
2019-02-11T07:13:43.872Z,2.50
2019-02-11T07:16:12.804Z,2.50
2019-02-11T07:18:43.080Z,2.50
2019-02-11T07:21:11.727Z,2.50
2019-02-11T07:23:40.855Z,2.60
2019-02-11T07:26:09.539Z,2.60
2019-02-11T07:28:38.365Z,2.60
2019-02-11T07:31:07.151Z,2.60
2019-02-11T07:33:35.906Z,2.60
2019-02-11T07:36:04.567Z,2.60
2019-02-11T07:38:33.433Z,2.70
2019-02-11T07:41:02.371Z,2.70
2019-02-11T07:43:32.839Z,2.70
2019-02-11T07:46:03.162Z,2.70
2019-02-11T07:48:31.915Z,2.70
2019-02-11T07:51:00.908Z,2.80
2019-02-11T07:53:29.677Z,2.80
2019-02-11T07:55:58.423Z,2.80
2019-02-11T07:58:27.094Z,2.80
2019-02-11T08:00:56.688Z,2.80
2019-02-11T08:03:28.434Z,2.90
2019-02-11T08:05:57.256Z,2.90
2019-02-11T08:08:26.128Z,2.90
2019-02-11T08:10:56.389Z,2.90
2019-02-11T08:13:26.710Z,2.90
2019-02-11T08:15:55.663Z,3.00
2019-02-11T08:18:24.343Z,3.00
2019-02-11T08:20:53.038Z,2.90
2019-02-11T08:23:21.843Z,3.00
2019-02-11T08:25:50.593Z,3.00
2019-02-11T08:28:19.867Z,3.00
2019-02-11T08:30:48.649Z,3.00
2019-02-11T08:33:18.371Z,3.00
2019-02-11T08:35:47.288Z,3.00
2019-02-11T08:38:16.213Z,3.00
2019-02-11T08:40:45.579Z,3.00
2019-02-11T08:43:14.530Z,3.00
2019-02-11T08:45:47.016Z,3.00
2019-02-11T08:48:13.665Z,3.00
2019-02-11T08:50:42.436Z,3.00
2019-02-11T08:53:12.488Z,2.90
2019-02-11T08:55:41.765Z,3.00
2019-02-11T08:58:10.605Z,2.90
2019-02-11T09:00:39.416Z,2.90
2019-02-11T09:03:08.189Z,2.90
2019-02-11T09:05:37.116Z,2.90
2019-02-11T09:08:06.244Z,2.90
2019-02-11T09:10:36.288Z,2.90
2019-02-11T09:13:05.908Z,2.90
2019-02-11T09:15:35.444Z,2.80
2019-02-11T09:18:04.383Z,2.80
2019-02-11T09:20:33.644Z,2.80
2019-02-11T09:23:02.515Z,2.80
2019-02-11T09:25:31.745Z,2.60
2019-02-11T09:28:00.843Z,2.60
2019-02-11T09:30:31.245Z,2.60
2019-02-11T09:33:01.226Z,2.60
2019-02-11T09:35:30.040Z,2.60
2019-02-11T09:37:58.806Z,2.60
2019-02-11T09:40:28.659Z,2.60
2019-02-11T09:42:57.358Z,2.60
2019-02-11T09:45:28.777Z,2.60
2019-02-11T09:47:59.434Z,2.70
2019-02-11T09:50:40.544Z,2.60
2019-02-11T09:53:09.540Z,2.60
2019-02-11T09:55:38.495Z,2.60
2019-02-11T09:58:07.750Z,2.60
2019-02-11T10:00:36.562Z,2.70
2019-02-11T10:03:05.262Z,2.70
2019-02-11T10:05:34.116Z,2.70
2019-02-11T10:08:02.884Z,2.70
2019-02-11T10:10:31.580Z,2.70
2019-02-11T10:13:00.275Z,2.70
2019-02-11T10:15:29.194Z,2.60
2019-02-11T10:17:58.030Z,2.60
2019-02-11T10:20:27.071Z,2.60
2019-02-11T10:22:55.796Z,2.60
2019-02-11T10:25:26.641Z,2.60
2019-02-11T10:27:58.223Z,2.60
2019-02-11T10:30:27.070Z,2.60
2019-02-11T10:32:55.860Z,2.60
2019-02-11T10:35:24.724Z,2.60
2019-02-11T10:37:53.700Z,2.60
2019-02-11T10:40:22.649Z,2.70
2019-02-11T10:42:51.421Z,2.70
2019-02-11T10:45:20.205Z,2.60
2019-02-11T10:47:49.143Z,2.60
2019-02-11T10:50:19.559Z,2.70
2019-02-11T10:52:48.158Z,2.70
2019-02-11T10:55:18.489Z,2.70
2019-02-11T10:57:48.794Z,2.70
2019-02-11T11:00:20.622Z,2.70
2019-02-11T11:06:17.708Z,2.70
2019-02-11T11:08:46.611Z,2.70
2019-02-11T11:11:15.496Z,2.70
2019-02-11T11:13:44.922Z,2.70
2019-02-11T11:16:14.172Z,2.70
2019-02-11T11:18:42.810Z,2.70
2019-02-11T11:21:12.824Z,2.80
2019-02-11T11:23:42.017Z,2.80
2019-02-11T11:26:11.020Z,2.80
2019-02-11T11:28:40.266Z,2.80
2019-02-11T11:31:09.573Z,2.80
2019-02-11T11:33:38.349Z,2.80
2019-02-11T11:36:07.715Z,2.80
2019-02-11T11:38:37.298Z,2.70
2019-02-11T11:41:06.652Z,2.60
2019-02-11T11:43:35.743Z,2.60
2019-02-11T11:46:05.063Z,2.60
2019-02-11T11:48:34.296Z,2.60
2019-02-11T11:51:03.598Z,2.60
2019-02-11T11:53:33.509Z,2.60
2019-02-11T11:56:02.778Z,2.70
2019-02-11T11:58:31.936Z,2.60
2019-02-11T12:01:01.611Z,2.60
2019-02-11T12:03:30.873Z,2.60
2019-02-11T12:06:00.479Z,2.60
2019-02-11T12:08:29.691Z,2.60
2019-02-11T12:10:58.995Z,2.60
2019-02-11T12:13:28.263Z,2.60
2019-02-11T12:15:57.585Z,2.60
2019-02-11T12:18:26.636Z,2.70
2019-02-11T12:20:56.358Z,2.60
2019-02-11T12:23:25.666Z,2.60
2019-02-11T12:25:54.592Z,2.60
2019-02-11T12:28:23.698Z,2.50
2019-02-11T12:30:53.867Z,2.50
2019-02-11T12:33:22.883Z,2.60
2019-02-11T12:35:52.419Z,2.60
2019-02-11T12:38:21.906Z,2.50
2019-02-11T12:40:51.032Z,2.50
2019-02-11T12:43:19.920Z,2.50
2019-02-11T12:45:49.377Z,2.50
2019-02-11T12:48:18.307Z,2.50
2019-02-11T12:50:47.641Z,2.50
2019-02-11T12:53:17.191Z,2.50
2019-02-11T12:55:46.509Z,2.50
2019-02-11T12:58:15.968Z,2.40
2019-02-11T13:00:45.175Z,2.50
2019-02-11T13:03:13.926Z,2.50
2019-02-11T13:05:46.067Z,2.50
2019-02-11T13:08:14.817Z,2.50
2019-02-11T13:10:44.411Z,2.50
2019-02-11T13:13:14.026Z,2.40
2019-02-11T13:16:00.124Z,2.40
2019-02-11T13:18:14.413Z,2.40
2019-02-11T13:20:44.027Z,2.40
2019-02-11T13:23:12.883Z,2.30
2019-02-11T13:25:42.136Z,2.30
2019-02-11T13:28:11.346Z,2.30
2019-02-11T13:30:40.507Z,2.30
2019-02-11T13:33:09.993Z,2.20
2019-02-11T13:35:39.613Z,2.20
2019-02-11T13:38:08.494Z,2.20
2019-02-11T13:40:38.363Z,2.20
2019-02-11T13:43:08.104Z,2.20
2019-02-11T13:45:37.366Z,2.10
2019-02-11T13:48:06.166Z,2.20
2019-02-11T13:50:35.877Z,2.20
2019-02-11T13:53:05.373Z,2.20
2019-02-11T13:55:34.576Z,2.20
2019-02-11T13:58:03.494Z,2.20
2019-02-11T14:00:34.266Z,2.20
2019-02-11T14:03:05.642Z,2.10
2019-02-11T14:05:34.627Z,2.10
2019-02-11T14:08:03.364Z,2.20
2019-02-11T14:10:32.260Z,2.20
2019-02-11T14:13:01.751Z,2.20
2019-02-11T14:15:30.683Z,2.20
2019-02-11T14:18:14.048Z,2.30
2019-02-11T14:20:40.346Z,2.20
2019-02-11T14:23:10.052Z,2.30
2019-02-11T14:25:45.031Z,2.20
2019-02-11T14:28:10.006Z,2.30
2019-02-11T14:30:39.327Z,2.20
2019-02-11T14:33:08.304Z,2.30
2019-02-11T14:35:37.473Z,2.20
2019-02-11T14:38:06.777Z,2.20
2019-02-11T14:40:35.611Z,2.20
2019-02-11T14:43:04.764Z,2.30
2019-02-11T14:45:33.840Z,2.20
2019-02-11T14:48:03.410Z,2.30
2019-02-11T14:50:32.669Z,2.30
2019-02-11T14:53:01.952Z,2.30
2019-02-11T14:55:32.406Z,2.30
2019-02-11T14:58:03.058Z,2.30
2019-02-11T15:00:31.796Z,2.30
2019-02-11T15:03:01.060Z,2.30
2019-02-11T15:05:29.833Z,2.30
2019-02-11T15:07:59.411Z,2.30
2019-02-11T15:10:29.191Z,2.30
2019-02-11T15:12:58.052Z,2.40
2019-02-11T15:15:27.275Z,2.40
2019-02-11T15:17:56.658Z,2.30
2019-02-11T15:20:25.859Z,2.40
2019-02-11T15:22:54.664Z,2.40
2019-02-11T15:25:24.050Z,2.40
2019-02-11T15:27:53.264Z,2.40
2019-02-11T15:30:22.503Z,2.40
2019-02-11T15:32:51.228Z,2.40
2019-02-11T15:35:20.019Z,2.50
2019-02-11T15:37:49.172Z,2.50
2019-02-11T15:40:20.504Z,2.40
2019-02-11T15:42:49.250Z,2.50
2019-02-11T15:45:18.026Z,2.50
2019-02-11T15:47:47.611Z,2.50
2019-02-11T15:50:18.022Z,2.50
2019-02-11T15:52:46.754Z,2.50
2019-02-11T15:55:21.245Z,2.50
2019-02-11T15:57:51.677Z,2.60
2019-02-11T16:00:22.428Z,2.60
2019-02-11T16:02:51.662Z,2.60
2019-02-11T16:05:20.978Z,2.60
2019-02-11T16:07:49.638Z,2.60
2019-02-11T16:10:20.881Z,2.60
2019-02-11T16:12:49.504Z,2.60
2019-02-11T16:15:19.302Z,2.60
2019-02-11T16:17:48.241Z,2.60
2019-02-11T16:20:16.982Z,2.60
2019-02-11T16:22:45.666Z,2.60
2019-02-11T16:25:16.613Z,2.50
2019-02-11T16:27:45.300Z,2.60
2019-02-11T16:30:21.362Z,2.60
2019-02-11T16:32:50.080Z,2.60
2019-02-11T16:35:19.112Z,2.60
2019-02-11T16:37:48.000Z,2.60
2019-02-11T16:40:19.772Z,2.60
2019-02-11T16:42:48.599Z,2.60
2019-02-11T16:45:17.461Z,2.60
2019-02-11T16:47:46.097Z,2.70
2019-02-11T16:50:14.948Z,2.70
2019-02-11T16:52:43.587Z,2.70
2019-02-11T16:55:12.574Z,2.70
2019-02-11T16:57:41.314Z,2.70
2019-02-11T17:00:20.519Z,2.70
2019-02-11T17:02:49.448Z,2.80
2019-02-11T17:05:18.177Z,2.70
2019-02-11T17:07:46.967Z,2.70
2019-02-11T17:10:16.026Z,2.70
2019-02-11T17:12:44.839Z,2.70
2019-02-11T17:15:20.069Z,2.70
2019-02-11T17:17:48.940Z,2.80
2019-02-11T17:20:17.642Z,2.80
2019-02-11T17:22:46.306Z,2.80
2019-02-11T17:25:15.412Z,2.80
2019-02-11T17:27:44.142Z,2.90
2019-02-11T17:30:21.863Z,2.90
2019-02-11T17:32:50.451Z,2.90
2019-02-11T17:35:19.084Z,2.90
2019-02-11T17:37:47.835Z,2.90
2019-02-11T17:40:19.143Z,2.90
2019-02-11T17:42:47.912Z,2.90
2019-02-11T17:45:22.471Z,3.00
2019-02-11T17:47:51.286Z,3.00
2019-02-11T17:50:19.841Z,3.00
2019-02-11T17:52:50.048Z,3.00
2019-02-11T17:55:18.767Z,3.00
2019-02-11T17:57:47.485Z,3.00
2019-02-11T18:00:30.201Z,3.10
2019-02-11T18:02:58.947Z,3.10
2019-02-11T18:05:27.743Z,3.10
2019-02-11T18:07:56.438Z,3.10
2019-02-11T18:10:25.149Z,3.10
2019-02-11T18:12:53.835Z,3.10
2019-02-11T18:15:22.666Z,3.10
2019-02-11T18:17:51.271Z,3.10
2019-02-11T18:20:19.930Z,3.10
2019-02-11T18:22:48.650Z,3.20
2019-02-11T18:25:17.402Z,3.20
2019-02-11T18:27:46.298Z,3.20
2019-02-11T18:30:16.247Z,3.10
2019-02-11T18:32:44.971Z,3.20
2019-02-11T18:35:15.364Z,3.20
2019-02-11T18:37:44.008Z,3.20
2019-02-11T18:40:14.499Z,3.20
2019-02-11T18:42:43.153Z,3.20
2019-02-11T18:45:14.030Z,3.20
2019-02-11T18:47:42.869Z,3.20
2019-02-11T18:50:15.947Z,3.20
2019-02-11T18:52:44.704Z,3.20
2019-02-11T18:55:15.853Z,3.30
2019-02-11T18:57:44.506Z,3.30
2019-02-11T19:00:17.172Z,3.30
2019-02-11T19:02:45.859Z,3.30
2019-02-11T19:05:14.919Z,3.30
2019-02-11T19:07:43.640Z,3.30
2019-02-11T19:10:14.041Z,3.30
2019-02-11T19:12:42.793Z,3.30
2019-02-11T19:15:13.784Z,3.30
2019-02-11T19:17:42.489Z,3.30
2019-02-11T19:20:19.537Z,3.40
2019-02-11T19:22:49.174Z,3.30
2019-02-11T19:25:17.771Z,3.30
2019-02-11T19:27:46.460Z,3.30
2019-02-11T19:30:18.352Z,3.40
2019-02-11T19:32:47.161Z,3.40
2019-02-11T19:35:15.849Z,3.40
2019-02-11T19:37:44.606Z,3.50
2019-02-11T19:40:18.288Z,3.50
2019-02-11T19:42:47.067Z,3.50
2019-02-11T19:45:18.427Z,3.50
2019-02-11T19:47:47.164Z,3.50
2019-02-11T19:50:17.178Z,3.50
2019-02-11T19:52:45.823Z,3.50
2019-02-11T19:55:15.607Z,3.50
2019-02-11T19:57:44.417Z,3.50
2019-02-11T20:00:23.026Z,3.50
2019-02-11T20:02:51.706Z,3.50
2019-02-11T20:05:20.283Z,3.50
2019-02-11T20:07:49.002Z,3.50
2019-02-11T20:10:22.796Z,3.50
2019-02-11T20:12:51.482Z,3.60
2019-02-11T20:15:30.414Z,3.60
2019-02-11T20:17:59.021Z,3.60
2019-02-11T20:20:27.701Z,3.60
2019-02-11T20:22:57.007Z,3.60
2019-02-11T20:25:26.060Z,3.70
2019-02-11T20:28:04.486Z,3.70
2019-02-11T20:30:33.460Z,3.80
2019-02-11T20:33:04.477Z,3.80
2019-02-11T20:35:33.206Z,3.80
2019-02-11T20:38:02.800Z,3.70
2019-02-11T20:40:31.835Z,3.70
2019-02-11T20:43:00.769Z,3.80
2019-02-11T20:45:30.180Z,3.80
2019-02-11T20:47:58.981Z,3.80
2019-02-11T20:50:27.976Z,3.80
2019-02-11T20:52:57.340Z,3.90
2019-02-11T20:55:26.675Z,3.90
2019-02-11T20:57:58.587Z,3.90
2019-02-11T21:00:27.617Z,3.90
2019-02-11T21:02:56.883Z,3.90
2019-02-11T21:05:25.749Z,3.90
2019-02-11T21:07:55.056Z,3.90
2019-02-11T21:10:25.136Z,3.90
2019-02-11T21:12:53.977Z,3.90
2019-02-11T21:15:23.175Z,3.90
2019-02-11T21:17:51.925Z,3.90
2019-02-11T21:20:27.308Z,4.00
2019-02-11T21:22:56.124Z,4.00
2019-02-11T21:25:25.377Z,4.00
2019-02-11T21:27:54.920Z,4.00
2019-02-11T21:30:24.110Z,4.00
2019-02-11T21:32:53.332Z,4.00
2019-02-11T21:35:22.637Z,4.00
2019-02-11T21:37:51.510Z,4.00
2019-02-11T21:40:20.801Z,4.00
2019-02-11T21:42:50.051Z,4.00
2019-02-11T21:45:18.842Z,3.90
2019-02-11T21:47:48.550Z,3.90
2019-02-11T21:50:26.440Z,3.90
2019-02-11T21:52:49.623Z,3.90
2019-02-11T21:55:20.797Z,3.90
2019-02-11T21:57:50.050Z,3.90
2019-02-11T22:00:20.981Z,3.90
2019-02-11T22:02:50.212Z,4.00
2019-02-11T22:05:19.454Z,3.90
2019-02-11T22:07:48.929Z,3.90
2019-02-11T22:10:19.708Z,4.00
2019-02-11T22:12:48.545Z,3.90
2019-02-11T22:15:17.289Z,3.80
2019-02-11T22:17:46.557Z,3.70
2019-02-11T22:20:17.941Z,3.60
2019-02-11T22:22:50.850Z,3.50
2019-02-11T22:25:20.149Z,3.30
2019-02-11T22:27:48.962Z,3.20
2019-02-11T22:30:19.991Z,3.10
2019-02-11T22:32:49.333Z,3.10
2019-02-11T22:35:18.550Z,3.00
2019-02-11T22:37:49.328Z,3.00
2019-02-11T22:40:18.576Z,3.00
2019-02-11T22:42:47.461Z,2.90
2019-02-11T22:45:18.344Z,2.80
2019-02-11T22:47:47.663Z,2.80
2019-02-11T22:50:16.907Z,2.70
2019-02-11T22:52:46.044Z,2.70
2019-02-11T22:55:15.884Z,2.60
2019-02-11T22:57:45.139Z,2.60
2019-02-11T23:00:45.370Z,2.60
2019-02-11T23:03:16.501Z,2.60
2019-02-11T23:05:45.250Z,2.60
2019-02-11T23:08:14.129Z,2.50
2019-02-11T23:10:43.095Z,2.50
2019-02-11T23:13:13.518Z,2.50
2019-02-11T23:15:42.792Z,2.40
2019-02-11T23:18:11.804Z,2.50
2019-02-11T23:20:41.030Z,2.50
2019-02-11T23:23:10.210Z,2.50
2019-02-11T23:25:39.400Z,2.40
2019-02-11T23:28:08.796Z,2.40
2019-02-11T23:30:40.252Z,2.40
2019-02-11T23:33:09.120Z,2.30
2019-02-11T23:35:38.410Z,2.30
2019-02-11T23:38:07.659Z,2.30
2019-02-11T23:40:36.832Z,2.30
2019-02-11T23:43:05.614Z,2.30
2019-02-11T23:45:34.795Z,2.30
2019-02-11T23:48:03.841Z,2.30
2019-02-11T23:50:32.758Z,2.20
2019-02-11T23:53:01.980Z,2.20
2019-02-11T23:55:31.037Z,2.20
2019-02-11T23:57:59.807Z,2.20
